Flight Track Log - Related Links

Times and Time Zones

All times are in EDT time to prevent confusion due to time zone crossing. See the ASQ20T flight status page for this flight to view local times or setup timezone preferences in your user account.

Time Position Orientation Groundspeed Altitude Reporting Facility
EDT Latitude Longitude Course Direction KTS MPH feet Rate Location/Type
Sat 01:30:10 AM 42.0000 -87.9333 312° West 166 191 1,400  Level Chicago TRACON
Sat 01:31:04 AM 42.0333 -87.9833 312° West 231 266 3,000 1,947 Climbing Chicago TRACON
Sat 01:32:04 AM 42.0833 -88.0500 315° West 274 315 5,100 2,484 Climbing Chicago TRACON
Sat 01:33:41 AM 42.1408 -88.1881 299° West 287 330 9,500 2,637 Climbing Chicago Center
Sat 01:34:41 AM 42.1153 -88.2914 252° West 291 335 12,000 2,050 Climbing Chicago Center
Sat 01:35:41 AM 42.0867 -88.4022 251° West 310 357 13,600 1,339 Climbing Chicago Center
Sat 01:36:42 AM 42.0450 -88.5236 245° Southwest 345 397 14,700 1,240 Climbing Chicago Center
Sat 01:37:42 AM 42.0014 -88.6550 246° West 374 430 16,100 1,650 Climbing Chicago Center
Sat 01:38:42 AM 41.9578 -88.7886 246° West 391 450 18,000 1,884 Climbing Chicago Center
Sat 01:39:43 AM 41.9139 -88.9164 245° Southwest 383 441 19,900 1,934 Climbing Chicago Center
Sat 01:40:43 AM 41.8625 -89.0347 240° Southwest 372 428 21,900 1,850 Climbing Chicago Center
Sat 01:41:43 AM 41.8106 -89.1531 240° Southwest 370 426 23,600 1,587 Climbing Chicago Center
Sat 01:42:44 AM 41.7578 -89.2733 240° Southwest 376 433 25,100 1,388 Climbing Chicago Center
Sat 01:43:44 AM 41.6919 -89.4217 239° Southwest 388 447 26,400 1,150 Climbing Chicago Center
Sat 01:44:44 AM 41.6361 -89.5483 239° Southwest 396 456 27,400 942 Climbing Chicago Center
Sat 01:45:45 AM 41.5858 -89.6589 239° Southwest 403 464 28,300 942 Climbing Chicago Center
Sat 01:46:45 AM 41.5269 -89.7894 239° Southwest 411 473 29,300 1,000 Climbing Chicago Center
Sat 01:47:45 AM 41.4672 -89.9200 239° Southwest 413 475 30,300 1,000 Climbing Chicago Center
Sat 01:48:45 AM 41.4072 -90.0536 239° Southwest 421 484 31,300 992 Climbing Chicago Center
Sat 01:49:46 AM 41.3458 -90.1889 239° Southwest 427 491 32,300 992 Climbing Chicago Center
Sat 01:50:46 AM 41.2833 -90.3250 239° Southwest 433 498 33,300 1,000 Climbing Chicago Center
Sat 01:51:46 AM 41.2192 -90.4647 239° Southwest 443 510 34,300 1,000 Climbing Chicago Center
Sat 01:52:46 AM 41.1561 -90.6000 238° Southwest 436 502 35,300 843 Climbing Chicago Center
Sat 01:53:47 AM 41.0819 -90.7606 239° Southwest 429 494 36,000 347 Climbing Chicago Center
Sat 01:54:47 AM 41.0172 -90.8975 238° Southwest 439 505 36,000  Level Chicago Center
Sat 01:55:47 AM 40.9514 -91.0403 239° Southwest 453 521 36,000  Level Chicago Center
Sat 01:56:48 AM 40.8833 -91.1839 238° Southwest 461 531 36,000  Level Chicago Center
Sat 01:57:48 AM 40.8161 -91.3264 238° Southwest 466 536 36,000  Level Chicago Center
Sat 01:58:48 AM 40.7464 -91.4700 237° Southwest 469 540 36,000  Level Chicago Center
Sat 01:59:48 AM 40.6789 -91.6117 238° Southwest 461 531 36,000  Level Chicago Center
Sat 02:00:49 AM 40.6117 -91.7517 238° Southwest 455 524 36,000  Level Chicago Center
Sat 02:01:38 AM 40.5569 -91.8647 238° Southwest 459 528 36,000  Level Kansas City Center
Sat 02:02:38 AM 40.4894 -92.0028 237° Southwest 453 521 36,000  Level Kansas City Center
Sat 02:03:39 AM 40.4231 -92.1406 238° Southwest 450 518 36,000  Level Kansas City Center
Sat 02:04:39 AM 40.3544 -92.2800 237° Southwest 454 522 36,000  Level Kansas City Center
Sat 02:05:39 AM 40.2797 -92.4308 237° Southwest 459 528 36,000  Level Kansas City Center
Sat 02:06:39 AM 40.2128 -92.5661 237° Southwest 461 531 36,000  Level Kansas City Center
Sat 02:07:39 AM 40.1469 -92.7014 238° Southwest 462 532 36,000  Level Kansas City Center
Sat 02:08:40 AM 40.0686 -92.8569 237° Southwest 459 528 36,000  Level Kansas City Center
Sat 02:09:40 AM 40.0014 -92.9917 237° Southwest 462 532 36,000  Level Kansas City Center
Sat 02:10:40 AM 39.9308 -93.1325 237° Southwest 466 536 36,000  Level Kansas City Center
Sat 02:11:40 AM 39.8586 -93.2747 237° Southwest 471 542 36,000  Level Kansas City Center
Sat 02:12:40 AM 39.7856 -93.4153 236° Southwest 472 543 36,000  Level Kansas City Center
Sat 02:13:41 AM 39.7133 -93.5575 237° Southwest 473 544 36,000  Level Kansas City Center
Sat 02:14:41 AM 39.6419 -93.7000 237° Southwest 473 544 36,000  Level Kansas City Center
Sat 02:15:41 AM 39.5631 -93.8578 237° Southwest 475 547 36,000  Level Kansas City Center
Sat 02:16:41 AM 39.4917 -93.9947 236° Southwest 478 550 36,000  Level Kansas City Center
Sat 02:17:41 AM 39.4200 -94.1339 236° Southwest 482 555 36,000  Level Kansas City Center
Sat 02:18:42 AM 39.3478 -94.2731 236° Southwest 485 558 36,000  Level Kansas City Center
Sat 02:19:42 AM 39.2639 -94.4342 236° Southwest 484 557 36,000  Level Kansas City Center
Sat 02:20:42 AM 39.1925 -94.5700 236° Southwest 479 551 36,000  Level Kansas City Center
Sat 02:21:42 AM 39.1214 -94.7039 236° Southwest 472 543 36,000  Level Kansas City Center
Sat 02:22:42 AM 39.0497 -94.8383 236° Southwest 472 543 36,000 248 Level Kansas City Center
Sat 02:23:43 AM 38.9683 -94.9925 236° Southwest 462 532 36,500 496 Climbing Kansas City Center
Sat 02:24:43 AM 38.8992 -95.1214 235° Southwest 455 524 37,000 250 Climbing Kansas City Center
Sat 02:25:43 AM 38.8289 -95.2528 236° Southwest 463 533 37,000  Level Kansas City Center
Sat 02:26:43 AM 38.7581 -95.3833 235° Southwest 464 534 37,000  Level Kansas City Center
Sat 02:27:43 AM 38.6761 -95.5372 236° Southwest 468 539 37,000  Level Kansas City Center
Sat 02:28:44 AM 38.6042 -95.6689 235° Southwest 469 540 37,000  Level Kansas City Center
Sat 02:29:44 AM 38.5314 -95.8017 235° Southwest 474 545 37,000  Level Kansas City Center
Sat 02:30:44 AM 38.4586 -95.9369 236° Southwest 479 551 37,000  Level Kansas City Center
Sat 02:31:44 AM 38.3717 -96.0922 234° Southwest 483 556 37,000  Level Kansas City Center
Sat 02:32:45 AM 38.2975 -96.2264 235° Southwest 483 556 37,000  Level Kansas City Center
Sat 02:33:45 AM 38.2247 -96.3569 235° Southwest 475 547 37,000  Level Kansas City Center
Sat 02:34:45 AM 38.1544 -96.4844 235° Southwest 475 547 37,000  Level Kansas City Center
Sat 02:35:45 AM 38.0794 -96.6181 235° Southwest 466 536 37,000  Level Kansas City Center
Sat 02:36:46 AM 38.0050 -96.7525 235° Southwest 464 534 37,000  Level Kansas City Center
Sat 02:37:46 AM 37.9292 -96.8858 234° Southwest 464 534 37,000  Level Kansas City Center
Sat 02:38:46 AM 37.8536 -97.0189 234° Southwest 464 534 37,000  Level Kansas City Center
Sat 02:39:46 AM 37.7783 -97.1514 234° Southwest 462 532 37,000  Level Kansas City Center
Sat 02:40:46 AM 37.7031 -97.2836 234° Southwest 461 531 37,000  Level Kansas City Center
Sat 02:41:47 AM 37.6275 -97.4139 234° Southwest 457 526 37,000  Level Kansas City Center
Sat 02:42:47 AM 37.5519 -97.5453 234° Southwest 459 528 37,000  Level Kansas City Center
Sat 02:43:47 AM 37.4764 -97.6764 234° Southwest 458 527 37,000 -50 Level Kansas City Center
Sat 02:44:47 AM 37.4011 -97.8047 234° Southwest 455 524 36,900 -500 Descending Kansas City Center
Sat 02:45:47 AM 37.3256 -97.9333 234° Southwest 454 522 36,000 -446 Descending Kansas City Center
Sat 02:46:48 AM 37.2511 -98.0597 234° Southwest 449 517 36,000  Level Kansas City Center
Sat 02:47:48 AM 37.1756 -98.1892 234° Southwest 457 526 36,000  Level Kansas City Center
Sat 02:48:48 AM 37.1022 -98.3122 233° Southwest 443 510 36,000  Level Kansas City Center
Sat 02:49:48 AM 37.0303 -98.4367 234° Southwest 441 507 36,000  Level Kansas City Center
Sat 02:50:48 AM 36.9575 -98.5600 234° Southwest 441 507 36,000  Level Kansas City Center
Sat 02:51:49 AM 36.8831 -98.6836 233° Southwest 443 510 36,000  Level Kansas City Center
Sat 02:52:49 AM 36.8083 -98.8058 233° Southwest 443 510 36,000  Level Kansas City Center
Sat 02:53:49 AM 36.7364 -98.9286 234° Southwest 440 506 36,000  Level Kansas City Center
Sat 02:54:49 AM 36.6656 -99.0475 233° Southwest 432 497 36,000  Level Kansas City Center
Sat 02:55:49 AM 36.5850 -99.1778 232° Southwest 418 481 36,000  Level Kansas City Center
Sat 02:56:50 AM 36.5186 -99.2883 233° Southwest 415 478 36,000  Level Kansas City Center
Sat 02:57:50 AM 36.4514 -99.4006 233° Southwest 420 483 36,000  Level Kansas City Center
Sat 02:59:50 AM 36.2969 -99.6517 233° Southwest 440 506 36,000  Level Kansas City Center
Sat 03:00:50 AM 36.2253 -99.7683 233° Southwest 443 510 36,000  Level Kansas City Center
Sat 03:01:51 AM 36.1503 -99.8889 232° Southwest 438 504 36,000  Level Kansas City Center
Sat 03:02:51 AM 36.0781 -100.0047 232° Southwest 431 496 36,000  Level Kansas City Center
Sat 03:03:51 AM 36.0089 -100.1175 233° Southwest 418 481 36,000  Level Kansas City Center
Sat 03:04:51 AM 35.9369 -100.2322 232° Southwest 421 484 36,000  Level Kansas City Center
Sat 03:05:51 AM 35.8644 -100.3472 232° Southwest 425 489 36,000  Level Kansas City Center
Sat 03:06:52 AM 35.7906 -100.4658 232° Southwest 432 497 36,000  Level Kansas City Center
Sat 03:07:52 AM 35.7175 -100.5822 232° Southwest 432 497 36,000  Level Kansas City Center
Sat 03:09:02 AM 35.6300 -100.7186 232° Southwest 426 490 36,000  Level Albuquerque Center
Sat 03:10:02 AM 35.5611 -100.8303 233° Southwest 414 476 36,000  Level Albuquerque Center
Sat 03:11:02 AM 35.4911 -100.9394 232° Southwest 408 470 36,000  Level Albuquerque Center
Sat 03:12:03 AM 35.4217 -101.0478 232° Southwest 405 466 36,000  Level Albuquerque Center
Sat 03:13:03 AM 35.3517 -101.1575 232° Southwest 407 468 36,000  Level Albuquerque Center
Sat 03:14:03 AM 35.2808 -101.2667 232° Southwest 407 468 36,000  Level Albuquerque Center
Sat 03:15:03 AM 35.2083 -101.3767 231° Southwest 417 480 36,000  Level Albuquerque Center
Sat 03:16:04 AM 35.1358 -101.4897 232° Southwest 418 481 36,000  Level Albuquerque Center
Sat 03:17:04 AM 35.0625 -101.6028 232° Southwest 419 482 36,000  Level Albuquerque Center
Sat 03:18:04 AM 34.9903 -101.7153 232° Southwest 418 481 36,000  Level Albuquerque Center
Sat 03:19:05 AM 34.9158 -101.8297 232° Southwest 417 480 36,000  Level Albuquerque Center
Sat 03:20:05 AM 34.8431 -101.9414 232° Southwest 419 482 36,000  Level Albuquerque Center
Sat 03:21:05 AM 34.7692 -102.0522 231° Southwest 420 483 36,000  Level Albuquerque Center
Sat 03:22:06 AM 34.6967 -102.1628 231° Southwest 419 482 36,000  Level Albuquerque Center
Sat 03:23:06 AM 34.6231 -102.2731 231° Southwest 421 484 36,000  Level Albuquerque Center
Sat 03:24:06 AM 34.5506 -102.3839 232° Southwest 419 482 36,000  Level Albuquerque Center
Sat 03:25:06 AM 34.4772 -102.4942 231° Southwest 421 484 36,000  Level Albuquerque Center
Sat 03:26:07 AM 34.4033 -102.6031 231° Southwest 419 482 36,000  Level Albuquerque Center
Sat 03:27:07 AM 34.3294 -102.7142 231° Southwest 423 487 36,000  Level Albuquerque Center
Sat 03:28:07 AM 34.2558 -102.8247 231° Southwest 423 487 36,000  Level Albuquerque Center
Sat 03:29:08 AM 34.1936 -102.9172 231° Southwest 424 488 36,000  Level Albuquerque Center
Sat 03:30:08 AM 34.1206 -103.0247 231° Southwest 420 483 36,000  Level Albuquerque Center
Sat 03:31:08 AM 34.0464 -103.1333 231° Southwest 419 482 36,000  Level Albuquerque Center
Sat 03:32:09 AM 33.9594 -103.2622 231° Southwest 418 481 36,000  Level Albuquerque Center
Sat 03:33:09 AM 33.8883 -103.3667 231° Southwest 411 473 36,000  Level Albuquerque Center
Sat 03:34:09 AM 33.8158 -103.4736 231° Southwest 410 472 36,000  Level Albuquerque Center
Sat 03:35:22 AM 33.7431 -103.5800 231° Southwest 412 474 36,000  Level Albuquerque Center
Sat 03:36:22 AM 33.6475 -103.7114 229° Southwest 424 488 36,000  Level Albuquerque Center
Sat 03:37:22 AM 33.5689 -103.8142 227° Southwest 419 482 36,000  Level Albuquerque Center
Sat 03:38:22 AM 33.4917 -103.9147 227° Southwest 410 472 36,000  Level Albuquerque Center
Sat 03:39:23 AM 33.4139 -104.0139 227° Southwest 409 471 36,000  Level Albuquerque Center
Sat 03:40:23 AM 33.3358 -104.1133 227° Southwest 410 472 36,000  Level Albuquerque Center
Sat 03:41:23 AM 33.2581 -104.2133 227° Southwest 410 472 36,000 -149 Level Albuquerque Center
Sat 03:42:24 AM 33.1803 -104.3122 227° Southwest 408 470 35,700 -694 Descending Albuquerque Center
Sat 03:43:24 AM 33.1017 -104.4119 227° Southwest 410 472 34,600 -1,050 Descending Albuquerque Center
Sat 03:44:24 AM 33.0236 -104.5114 227° Southwest 410 472 33,600 -1,000 Descending Albuquerque Center
Sat 03:45:24 AM 32.9456 -104.6100 227° Southwest 408 470 32,600 -1,190 Descending Albuquerque Center
Sat 03:46:25 AM 32.8664 -104.7122 227° Southwest 419 482 31,200 -1,438 Descending Albuquerque Center
Sat 03:47:25 AM 32.7850 -104.8131 226° Southwest 424 488 29,700 -1,500 Descending Albuquerque Center
Sat 03:48:25 AM 32.7036 -104.9167 227° Southwest 428 493 28,200 -1,500 Descending Albuquerque Center
Sat 03:49:25 AM 32.6256 -105.0186 228° Southwest 431 496 26,700 -1,488 Descending Albuquerque Center
Sat 03:50:26 AM 32.5447 -105.1217 227° Southwest 430 495 25,200 -1,537 Descending Albuquerque Center
Sat 03:51:26 AM 32.4628 -105.2222 226° Southwest 427 491 23,600 -1,900 Descending Albuquerque Center
Sat 03:52:26 AM 32.3842 -105.3222 227° Southwest 421 484 21,400 -2,376 Descending Albuquerque Center
Sat 03:53:07 AM 32.3297 -105.3853 224° Southwest 400 460 19,600 -2,459 Descending Albuquerque Center
Sat 03:53:27 AM 32.3100 -105.4139 231° Southwest 399 459 18,900 -2,400 Descending Albuquerque Center
Sat 03:54:27 AM 32.2367 -105.5053 227° Southwest 387 445 16,400 -2,550 Descending Albuquerque Center
Sat 03:55:27 AM 32.1644 -105.5953 227° Southwest 382 440 13,800 -2,750 Descending Albuquerque Center
Sat 03:56:27 AM 32.0944 -105.6792 225° Southwest 362 417 10,900 -2,000 Descending Albuquerque Center
Sat 03:57:27 AM 32.0261 -105.7606 225° Southwest 302 348 9,800 -942 Descending Albuquerque Center
Sat 03:58:28 AM 31.9911 -105.8372 242° Southwest 262 302 9,000 -397 Descending Albuquerque Center
Sat 03:59:28 AM 31.9681 -105.9208 252° West 268 308 9,000  Level Albuquerque Center
Sat 04:00:28 AM 31.9464 -106.0036 253° West 270 311 9,000 -150 Level Albuquerque Center
Sat 04:01:28 AM 31.9242 -106.0864 252° West 266 306 8,700 -744 Descending Albuquerque Center
Sat 04:02:29 AM 31.9031 -106.1617 252° West 245 282 7,500 -595 Descending Albuquerque Center
Sat 04:03:29 AM 31.8872 -106.2197 252° West 222 255 7,500 -800 Level Albuquerque Center
Sat 04:04:29 AM 31.8711 -106.2858 254° West 211 243 5,900 -1,250 Descending Albuquerque Center
Sat 04:05:29 AM 31.8522 -106.3306 244° Southwest 151 174 5,000 -893 Descending Albuquerque Center
Sat 04:06:30 AM 31.8222 -106.3694 228° Southwest 138 159 4,100 -885 Descending Albuquerque Center
Sat 04:08:00 AM 31.8000 -106.3667 270° West  Level FlightAware Approximate
Sat 04:15:00 AM 31.8072 -106.3764 270° West  Level Estimated
Sat 04:16:00 AM 31.8072 -106.3764 270° West  Level Estimated
Sat 04:17:00 AM 31.8072 -106.3764 270° West  Level Estimated
Sat 04:18:00 AM 31.8072 -106.3764 270° West  Level Estimated

Login

Don't have an account? Register now (free) for customized features, flight alerts, and more!